Forside
METAR-TAF:

METAR-TAF

Lufthavne :

Ramsar, Iran

Breddekreds: 36-54N, længdekreds: 050-40E, højde: -23 m

Aktuelle vejr

Denne rapport blev lavet for 32 minutter siden, kl. 12:00 UTC
Vind stille
Temperatur 20°C
Fugtighed 100%
Tryk 1018 hPa
Sigt: 2000 m
Brudte skyer i en højde af 1200 ft
Spredte skyer i en højde af 1500 ft, Cumulonimbus.
Overskyet i en højde af 7000 ft
regn

METAR: OINR 191200Z 00000KT 2000 RA BKN012 SCT015CB OVC070 20/20 Q1018

Tid: 17:02 (12:32 UTC)


TAF: fraværende

Vejrobservationer og prognoser fra mere end 4000 lufthavne (METAR og TAF).

De gule og røde prikker repræsenterer de meteorologiske stationer.

Flyt musen over at se navnet på stationen.

Så klik over at se vejr observationer og prognoser.

At skifte det kort: Klik på de grønne knapper med et sort kors for at zoome ind; på den grønne knap med en bindestreg for at zoome ud; eller på de grønne pile for tilstødende kort.


METAR-TAF: